Time,TemperatureF,DewpointF,PressureIn,WindDirection,WindDirectionDegrees,WindSpeedMPH,WindSpeedGustMPH,Humidity,HourlyPrecipIn,Conditions,Clouds,dailyrainin,SolarRadiationWatts/m^2,SoftwareType,DateUTC
2013-09-12 00:02:00,87.0,62.0,-100.00,SSW,212,6.0,9.0,43,0.00,,,0.00,0.000000,,2013-09-12 07:02:00,
2013-09-12 00:43:00,86.0,66.0,-100.00,SSW,205,5.0,8.0,52,0.00,,,0.00,0.000000,,2013-09-12 07:43:00,
2013-09-12 00:52:00,86.0,66.0,-100.00,SSW,205,5.0,8.0,52,0.00,,,0.00,0.000000,,2013-09-12 07:52:00,
2013-09-12 01:02:00,86.0,66.0,-100.00,SSW,205,5.0,8.0,52,0.00,,,0.00,0.000000,,2013-09-12 08:02:00,
2013-09-12 01:42:00,84.0,67.0,-100.00,WNW,292,0.0,7.0,57,0.00,,,0.00,0.000000,,2013-09-12 08:42:00,
2013-09-12 01:52:00,84.0,67.0,-100.00,WNW,292,0.0,7.0,57,0.00,,,0.00,0.000000,,2013-09-12 08:52:00,
2013-09-12 02:02:00,84.0,67.0,-100.00,WNW,292,0.0,7.0,57,0.00,,,0.00,0.000000,,2013-09-12 09:02:00,
2013-09-12 02:43:00,82.0,67.0,-100.00,NNE,15,2.0,4.0,61,0.00,,,0.00,0.000000,,2013-09-12 09:43:00,
2013-09-12 02:53:00,82.0,67.0,-100.00,NNE,15,2.0,4.0,61,0.00,,,0.00,0.000000,,2013-09-12 09:53:00,
2013-09-12 03:03:00,82.0,67.0,-100.00,NNE,15,2.0,4.0,61,0.00,,,0.00,0.000000,,2013-09-12 10:03:00,
2013-09-12 03:43:00,81.0,68.0,-100.00,ESE,107,0.0,3.0,64,0.00,,,0.00,0.000000,,2013-09-12 10:43:00,
2013-09-12 03:53:00,81.0,68.0,-100.00,ESE,107,0.0,3.0,64,0.00,,,0.00,0.000000,,2013-09-12 10:53:00,
2013-09-12 04:03:00,81.0,68.0,-100.00,ESE,107,0.0,3.0,64,0.00,,,0.00,0.000000,,2013-09-12 11:03:00,
2013-09-12 04:42:00,80.0,68.0,-100.00,East,97,0.0,0.0,68,0.00,,,0.00,0.000000,,2013-09-12 11:42:00,
2013-09-12 04:52:00,80.0,68.0,-100.00,East,97,0.0,0.0,68,0.00,,,0.00,0.000000,,2013-09-12 11:52:00,
2013-09-12 05:01:00,80.0,68.0,-100.00,East,97,0.0,0.0,68,0.00,,,0.00,0.000000,,2013-09-12 12:01:00,
2013-09-12 05:42:00,81.0,65.0,-100.00,East,92,2.0,4.0,58,0.00,,,0.00,0.000000,,2013-09-12 12:42:00,
2013-09-12 05:52:00,81.0,65.0,-100.00,East,92,2.0,4.0,58,0.00,,,0.00,0.000000,,2013-09-12 12:52:00,
2013-09-12 06:02:00,81.0,65.0,-100.00,East,92,2.0,4.0,58,0.00,,,0.00,0.000000,,2013-09-12 13:02:00,
2013-09-12 06:42:00,80.0,66.0,-100.00,East,90,0.0,4.0,63,0.00,,,0.00,0.000000,,2013-09-12 13:42:00,
2013-09-12 06:52:00,80.0,66.0,-100.00,East,90,0.0,4.0,63,0.00,,,0.00,0.000000,,2013-09-12 13:52:00,
2013-09-12 07:02:00,80.0,66.0,-100.00,East,90,0.0,4.0,63,0.00,,,0.00,0.000000,,2013-09-12 14:02:00,
2013-09-12 07:42:00,79.0,64.0,-100.00,NNE,14,0.0,4.0,60,0.00,,,0.00,0.000000,,2013-09-12 14:42:00,
2013-09-12 07:52:00,79.0,64.0,-100.00,NNE,14,0.0,4.0,60,0.00,,,0.00,0.000000,,2013-09-12 14:52:00,
2013-09-12 08:02:00,79.0,64.0,-100.00,NNE,14,0.0,4.0,60,0.00,,,0.00,0.000000,,2013-09-12 15:02:00,
2013-09-12 08:43:00,80.0,65.0,-100.00,NE,53,1.0,3.0,60,0.00,,,0.00,18.000000,,2013-09-12 15:43:00,
2013-09-12 08:54:00,80.0,65.0,-100.00,NE,53,1.0,3.0,60,0.00,,,0.00,18.000000,,2013-09-12 15:54:00,
2013-09-12 09:03:00,80.0,65.0,-100.00,NE,53,1.0,3.0,60,0.00,,,0.00,18.000000,,2013-09-12 16:03:00,
2013-09-12 09:43:00,86.0,63.0,-100.00,NNE,31,0.0,4.0,47,0.00,,,0.00,66.000000,,2013-09-12 16:43:00,
2013-09-12 09:53:00,86.0,63.0,-100.00,NNE,31,0.0,4.0,47,0.00,,,0.00,66.000000,,2013-09-12 16:53:00,
2013-09-12 10:03:00,86.0,63.0,-100.00,NNE,31,0.0,4.0,47,0.00,,,0.00,66.000000,,2013-09-12 17:03:00,
2013-09-12 10:43:00,94.0,60.0,-100.00,North,350,0.0,4.0,32,0.00,,,0.00,304.000000,,2013-09-12 17:43:00,
2013-09-12 10:53:00,94.0,60.0,-100.00,North,350,0.0,4.0,32,0.00,,,0.00,304.000000,,2013-09-12 17:53:00,
2013-09-12 11:02:00,94.0,60.0,-100.00,North,350,0.0,4.0,32,0.00,,,0.00,304.000000,,2013-09-12 18:02:00,
2013-09-12 11:42:00,98.0,55.0,-100.00,ESE,113,0.0,3.0,24,0.00,,,0.00,673.000000,,2013-09-12 18:42:00,
2013-09-12 11:52:00,98.0,55.0,-100.00,ESE,113,0.0,3.0,24,0.00,,,0.00,673.000000,,2013-09-12 18:52:00,
2013-09-12 12:02:00,98.0,55.0,-100.00,ESE,113,0.0,3.0,24,0.00,,,0.00,673.000000,,2013-09-12 19:02:00,
2013-09-12 12:42:00,103.0,51.0,-100.00,NNE,32,1.0,6.0,18,0.00,,,0.00,797.000000,,2013-09-12 19:42:00,
2013-09-12 12:52:00,103.0,51.0,-100.00,NNE,32,1.0,6.0,18,0.00,,,0.00,797.000000,,2013-09-12 19:52:00,
2013-09-12 13:02:00,103.0,51.0,-100.00,NNE,32,1.0,6.0,18,0.00,,,0.00,797.000000,,2013-09-12 20:02:00,
2013-09-12 14:43:00,106.0,49.0,-100.00,SE,137,2.0,9.0,15,0.00,,,0.00,1062.000000,,2013-09-12 21:43:00,
2013-09-12 14:54:00,106.0,49.0,-100.00,SE,137,2.0,9.0,15,0.00,,,0.00,1062.000000,,2013-09-12 21:54:00,
2013-09-12 15:04:00,106.0,49.0,-100.00,SE,137,2.0,9.0,15,0.00,,,0.00,1062.000000,,2013-09-12 22:04:00,
2013-09-12 15:43:00,105.0,46.0,-100.00,West,281,3.0,12.0,14,0.00,,,0.00,1069.000000,,2013-09-12 22:43:00,
2013-09-12 15:54:00,105.0,46.0,-100.00,West,281,3.0,12.0,14,0.00,,,0.00,1069.000000,,2013-09-12 22:54:00,
2013-09-12 16:04:00,105.0,46.0,-100.00,West,281,3.0,12.0,14,0.00,,,0.00,1069.000000,,2013-09-12 23:04:00,
2013-09-12 16:43:00,105.0,46.0,-100.00,NW,306,6.0,12.0,14,0.00,,,0.00,947.000000,,2013-09-12 23:43:00,
2013-09-12 16:52:00,105.0,46.0,-100.00,NW,306,6.0,12.0,14,0.00,,,0.00,947.000000,,2013-09-12 23:52:00,
2013-09-12 17:01:00,105.0,46.0,-100.00,NW,306,6.0,12.0,14,0.00,,,0.00,947.000000,,2013-09-13 00:01:00,
2013-09-12 17:42:00,106.0,45.0,-100.00,West,266,4.0,11.0,13,0.00,,,0.00,756.000000,,2013-09-13 00:42:00,
2013-09-12 17:52:00,106.0,45.0,-100.00,West,266,4.0,11.0,13,0.00,,,0.00,756.000000,,2013-09-13 00:52:00,
2013-09-12 18:01:00,106.0,45.0,-100.00,West,266,4.0,11.0,13,0.00,,,0.00,756.000000,,2013-09-13 01:01:00,
2013-09-12 18:42:00,104.0,45.0,-100.00,WNW,284,4.0,11.0,14,0.00,,,0.00,510.000000,,2013-09-13 01:42:00,
2013-09-12 18:52:00,104.0,45.0,-100.00,WNW,284,4.0,11.0,14,0.00,,,0.00,510.000000,,2013-09-13 01:52:00,
2013-09-12 19:02:00,104.0,45.0,-100.00,WNW,284,4.0,11.0,14,0.00,,,0.00,510.000000,,2013-09-13 02:02:00,
2013-09-12 19:43:00,101.0,50.0,-100.00,SW,236,9.0,17.0,18,0.00,,,0.00,238.000000,,2013-09-13 02:43:00,
2013-09-12 19:53:00,101.0,50.0,-100.00,SW,236,9.0,17.0,18,0.00,,,0.00,238.000000,,2013-09-13 02:53:00,
2013-09-12 20:02:00,101.0,50.0,-100.00,SW,236,9.0,17.0,18,0.00,,,0.00,238.000000,,2013-09-13 03:02:00,
2013-09-12 20:45:00,98.0,49.0,-100.00,SW,233,6.0,12.0,19,0.00,,,0.00,27.000000,,2013-09-13 03:45:00,
2013-09-12 20:55:00,98.0,49.0,-100.00,SW,233,6.0,12.0,19,0.00,,,0.00,27.000000,,2013-09-13 03:55:00,
2013-09-12 21:04:00,98.0,49.0,-100.00,SW,233,6.0,12.0,19,0.00,,,0.00,27.000000,,2013-09-13 04:04:00,
2013-09-12 21:44:00,95.0,50.0,-100.00,WSW,241,3.0,7.0,22,0.00,,,0.00,0.000000,,2013-09-13 04:44:00,
2013-09-12 21:54:00,95.0,50.0,-100.00,WSW,241,3.0,7.0,22,0.00,,,0.00,0.000000,,2013-09-13 04:54:00,
2013-09-12 22:03:00,95.0,50.0,-100.00,WSW,241,3.0,7.0,22,0.00,,,0.00,0.000000,,2013-09-13 05:03:00,
2013-09-12 22:43:00,89.0,52.0,-100.00,SW,227,1.0,4.0,28,0.00,,,0.00,0.000000,,2013-09-13 05:43:00,
2013-09-12 22:53:00,89.0,52.0,-100.00,SW,227,1.0,4.0,28,0.00,,,0.00,0.000000,,2013-09-13 05:53:00,
2013-09-12 23:02:00,89.0,52.0,-100.00,SW,227,1.0,4.0,28,0.00,,,0.00,0.000000,,2013-09-13 06:02:00,
2013-09-12 23:42:00,88.0,57.0,-100.00,South,169,0.0,3.0,35,0.00,,,0.00,0.000000,,2013-09-13 06:42:00,
2013-09-12 23:52:00,88.0,57.0,-100.00,South,169,0.0,3.0,35,0.00,,,0.00,0.000000,,2013-09-13 06:52:00,